sensor_id;sensor_type;location;lat;lon;timestamp;temperature;humidity
9437;DHT22;4757;59.334;18.034;2023-06-24T00:00:34;18.20;99.90
9437;DHT22;4757;59.334;18.034;2023-06-24T00:03:04;18.40;99.90
9437;DHT22;4757;59.334;18.034;2023-06-24T00:05:35;18.50;99.90
9437;DHT22;4757;59.334;18.034;2023-06-24T00:08:02;18.30;99.90
9437;DHT22;4757;59.334;18.034;2023-06-24T00:10:30;18.30;99.90
9437;DHT22;4757;59.334;18.034;2023-06-24T00:12:57;18.30;99.90
9437;DHT22;4757;59.334;18.034;2023-06-24T00:15:28;18.30;99.90
9437;DHT22;4757;59.334;18.034;2023-06-24T00:17:55;18.30;99.90
9437;DHT22;4757;59.334;18.034;2023-06-24T00:20:32;18.30;99.90
9437;DHT22;4757;59.334;18.034;2023-06-24T00:23:00;18.30;99.90
9437;DHT22;4757;59.334;18.034;2023-06-24T00:25:27;18.30;99.90
9437;DHT22;4757;59.334;18.034;2023-06-24T00:27:55;18.00;99.90
9437;DHT22;4757;59.334;18.034;2023-06-24T00:30:22;18.00;99.90
9437;DHT22;4757;59.334;18.034;2023-06-24T00:32:50;18.10;99.90
9437;DHT22;4757;59.334;18.034;2023-06-24T00:35:17;17.80;99.90
9437;DHT22;4757;59.334;18.034;2023-06-24T00:37:44;17.70;99.90
9437;DHT22;4757;59.334;18.034;2023-06-24T00:40:13;17.50;99.90
9437;DHT22;4757;59.334;18.034;2023-06-24T00:42:57;17.30;99.90
9437;DHT22;4757;59.334;18.034;2023-06-24T00:45:25;17.20;99.90
9437;DHT22;4757;59.334;18.034;2023-06-24T00:47:52;17.00;99.90
9437;DHT22;4757;59.334;18.034;2023-06-24T00:50:21;16.90;99.90
9437;DHT22;4757;59.334;18.034;2023-06-24T00:52:48;16.80;99.90
9437;DHT22;4757;59.334;18.034;2023-06-24T00:55:17;16.80;99.90
9437;DHT22;4757;59.334;18.034;2023-06-24T00:57:45;16.80;99.90
9437;DHT22;4757;59.334;18.034;2023-06-24T01:00:12;16.80;99.90
9437;DHT22;4757;59.334;18.034;2023-06-24T01:02:45;16.80;99.90
9437;DHT22;4757;59.334;18.034;2023-06-24T01:05:14;16.80;99.90
9437;DHT22;4757;59.334;18.034;2023-06-24T01:07:43;16.80;99.90
9437;DHT22;4757;59.334;18.034;2023-06-24T01:10:10;16.80;99.90
9437;DHT22;4757;59.334;18.034;2023-06-24T01:12:40;16.80;99.90
9437;DHT22;4757;59.334;18.034;2023-06-24T01:15:08;16.80;99.90
9437;DHT22;4757;59.334;18.034;2023-06-24T01:17:50;16.70;99.90
9437;DHT22;4757;59.334;18.034;2023-06-24T01:29:38;16.60;99.90
9437;DHT22;4757;59.334;18.034;2023-06-24T01:35:08;16.60;99.90
9437;DHT22;4757;59.334;18.034;2023-06-24T01:37:42;16.60;99.90
9437;DHT22;4757;59.334;18.034;2023-06-24T01:40:14;16.60;99.90
9437;DHT22;4757;59.334;18.034;2023-06-24T01:42:45;16.50;99.90
9437;DHT22;4757;59.334;18.034;2023-06-24T01:45:23;16.60;99.90
9437;DHT22;4757;59.334;18.034;2023-06-24T01:47:59;16.50;99.90
9437;DHT22;4757;59.334;18.034;2023-06-24T01:50:31;16.50;99.90
9437;DHT22;4757;59.334;18.034;2023-06-24T01:53:01;16.50;99.90
9437;DHT22;4757;59.334;18.034;2023-06-24T01:55:32;16.40;99.90
9437;DHT22;4757;59.334;18.034;2023-06-24T01:58:02;16.40;99.90
9437;DHT22;4757;59.334;18.034;2023-06-24T02:00:29;16.40;99.90
9437;DHT22;4757;59.334;18.034;2023-06-24T02:02:58;16.40;99.90
9437;DHT22;4757;59.334;18.034;2023-06-24T02:05:26;16.40;99.90
9437;DHT22;4757;59.334;18.034;2023-06-24T02:07:54;16.40;99.90
9437;DHT22;4757;59.334;18.034;2023-06-24T02:10:23;16.40;99.90
9437;DHT22;4757;59.334;18.034;2023-06-24T02:12:52;16.40;99.90
9437;DHT22;4757;59.334;18.034;2023-06-24T02:15:21;16.40;99.90
9437;DHT22;4757;59.334;18.034;2023-06-24T02:17:51;16.50;99.90
9437;DHT22;4757;59.334;18.034;2023-06-24T02:20:19;16.50;99.90
9437;DHT22;4757;59.334;18.034;2023-06-24T02:22:48;16.50;99.90
9437;DHT22;4757;59.334;18.034;2023-06-24T02:25:16;16.50;99.90
9437;DHT22;4757;59.334;18.034;2023-06-24T02:27:43;16.50;99.90
9437;DHT22;4757;59.334;18.034;2023-06-24T02:30:11;16.60;99.90
9437;DHT22;4757;59.334;18.034;2023-06-24T02:32:39;16.60;99.90
9437;DHT22;4757;59.334;18.034;2023-06-24T02:35:07;16.50;99.90
9437;DHT22;4757;59.334;18.034;2023-06-24T02:37:34;16.50;99.90
9437;DHT22;4757;59.334;18.034;2023-06-24T02:40:02;16.50;99.90
9437;DHT22;4757;59.334;18.034;2023-06-24T02:42:31;16.50;99.90
9437;DHT22;4757;59.334;18.034;2023-06-24T02:44:59;16.50;99.90
9437;DHT22;4757;59.334;18.034;2023-06-24T02:47:26;16.50;99.90
9437;DHT22;4757;59.334;18.034;2023-06-24T02:49:55;16.50;99.90
9437;DHT22;4757;59.334;18.034;2023-06-24T02:52:24;16.60;99.90
9437;DHT22;4757;59.334;18.034;2023-06-24T02:54:57;16.70;99.90
9437;DHT22;4757;59.334;18.034;2023-06-24T02:57:26;16.60;99.90
9437;DHT22;4757;59.334;18.034;2023-06-24T02:59:53;16.50;99.90
9437;DHT22;4757;59.334;18.034;2023-06-24T03:02:20;16.50;99.90
9437;DHT22;4757;59.334;18.034;2023-06-24T03:04:50;16.60;99.90
9437;DHT22;4757;59.334;18.034;2023-06-24T03:07:18;16.80;99.90
9437;DHT22;4757;59.334;18.034;2023-06-24T03:09:48;16.70;99.90
9437;DHT22;4757;59.334;18.034;2023-06-24T03:12:15;16.40;99.90
9437;DHT22;4757;59.334;18.034;2023-06-24T03:14:42;16.40;99.90
9437;DHT22;4757;59.334;18.034;2023-06-24T03:17:10;16.40;99.90
9437;DHT22;4757;59.334;18.034;2023-06-24T03:19:37;16.50;99.90
9437;DHT22;4757;59.334;18.034;2023-06-24T03:22:04;16.50;99.90
9437;DHT22;4757;59.334;18.034;2023-06-24T03:24:32;16.60;99.90
9437;DHT22;4757;59.334;18.034;2023-06-24T03:26:59;16.60;99.90
9437;DHT22;4757;59.334;18.034;2023-06-24T03:29:26;16.60;99.90
9437;DHT22;4757;59.334;18.034;2023-06-24T03:31:53;16.50;99.90
9437;DHT22;4757;59.334;18.034;2023-06-24T03:34:20;16.50;99.90
9437;DHT22;4757;59.334;18.034;2023-06-24T03:36:47;16.60;99.90
9437;DHT22;4757;59.334;18.034;2023-06-24T03:39:14;16.70;99.90
9437;DHT22;4757;59.334;18.034;2023-06-24T03:41:41;16.50;99.90
9437;DHT22;4757;59.334;18.034;2023-06-24T03:44:08;16.40;99.90
9437;DHT22;4757;59.334;18.034;2023-06-24T03:46:35;16.50;99.90
9437;DHT22;4757;59.334;18.034;2023-06-24T03:49:03;16.20;99.90
9437;DHT22;4757;59.334;18.034;2023-06-24T03:51:30;16.00;99.90
9437;DHT22;4757;59.334;18.034;2023-06-24T03:53:58;16.30;99.90
9437;DHT22;4757;59.334;18.034;2023-06-24T03:56:24;16.20;99.90
9437;DHT22;4757;59.334;18.034;2023-06-24T03:58:52;16.10;99.90
9437;DHT22;4757;59.334;18.034;2023-06-24T04:01:19;16.30;99.90
9437;DHT22;4757;59.334;18.034;2023-06-24T04:03:46;16.50;99.70
9437;DHT22;4757;59.334;18.034;2023-06-24T04:06:14;16.30;99.30
9437;DHT22;4757;59.334;18.034;2023-06-24T04:08:41;16.20;99.10
9437;DHT22;4757;59.334;18.034;2023-06-24T04:11:10;16.30;98.90
9437;DHT22;4757;59.334;18.034;2023-06-24T04:13:38;16.30;99.10
9437;DHT22;4757;59.334;18.034;2023-06-24T04:16:05;16.30;99.00
9437;DHT22;4757;59.334;18.034;2023-06-24T04:18:32;16.40;99.10
9437;DHT22;4757;59.334;18.034;2023-06-24T04:20:59;16.40;99.00
9437;DHT22;4757;59.334;18.034;2023-06-24T04:23:27;16.40;98.00
9437;DHT22;4757;59.334;18.034;2023-06-24T04:25:54;16.40;98.60
9437;DHT22;4757;59.334;18.034;2023-06-24T04:28:21;16.40;98.50
9437;DHT22;4757;59.334;18.034;2023-06-24T04:30:48;16.40;98.80
9437;DHT22;4757;59.334;18.034;2023-06-24T04:33:15;16.40;98.50
9437;DHT22;4757;59.334;18.034;2023-06-24T04:35:42;16.50;97.80
9437;DHT22;4757;59.334;18.034;2023-06-24T04:38:10;16.60;98.00
9437;DHT22;4757;59.334;18.034;2023-06-24T04:40:37;16.70;97.50
9437;DHT22;4757;59.334;18.034;2023-06-24T04:43:04;16.60;97.30
9437;DHT22;4757;59.334;18.034;2023-06-24T04:45:32;16.70;97.00
9437;DHT22;4757;59.334;18.034;2023-06-24T04:47:59;16.90;96.90
9437;DHT22;4757;59.334;18.034;2023-06-24T04:50:26;16.70;97.10
9437;DHT22;4757;59.334;18.034;2023-06-24T04:52:54;16.50;97.20
9437;DHT22;4757;59.334;18.034;2023-06-24T04:55:23;16.50;97.30
9437;DHT22;4757;59.334;18.034;2023-06-24T04:57:51;16.40;97.60
9437;DHT22;4757;59.334;18.034;2023-06-24T05:00:18;16.70;97.70
9437;DHT22;4757;59.334;18.034;2023-06-24T05:02:45;16.70;97.80
9437;DHT22;4757;59.334;18.034;2023-06-24T05:05:12;16.70;97.50
9437;DHT22;4757;59.334;18.034;2023-06-24T05:07:39;16.50;97.90
9437;DHT22;4757;59.334;18.034;2023-06-24T05:10:06;16.80;97.80
9437;DHT22;4757;59.334;18.034;2023-06-24T05:12:33;16.90;97.60
9437;DHT22;4757;59.334;18.034;2023-06-24T05:15:01;16.80;97.30
9437;DHT22;4757;59.334;18.034;2023-06-24T05:17:28;16.80;97.30
9437;DHT22;4757;59.334;18.034;2023-06-24T05:19:55;16.80;97.40
9437;DHT22;4757;59.334;18.034;2023-06-24T05:22:22;16.70;97.30
9437;DHT22;4757;59.334;18.034;2023-06-24T05:24:49;17.00;97.40
9437;DHT22;4757;59.334;18.034;2023-06-24T05:27:16;17.20;97.30
9437;DHT22;4757;59.334;18.034;2023-06-24T05:29:44;17.10;97.20
9437;DHT22;4757;59.334;18.034;2023-06-24T05:32:11;17.10;97.00
9437;DHT22;4757;59.334;18.034;2023-06-24T05:34:38;17.30;96.80
9437;DHT22;4757;59.334;18.034;2023-06-24T05:37:05;17.30;96.50
9437;DHT22;4757;59.334;18.034;2023-06-24T05:39:32;17.20;96.10
9437;DHT22;4757;59.334;18.034;2023-06-24T05:41:59;17.20;96.30
9437;DHT22;4757;59.334;18.034;2023-06-24T05:44:26;17.50;96.20
9437;DHT22;4757;59.334;18.034;2023-06-24T05:46:53;17.70;96.00
9437;DHT22;4757;59.334;18.034;2023-06-24T05:49:20;17.60;95.80
9437;DHT22;4757;59.334;18.034;2023-06-24T05:51:48;17.40;96.00
9437;DHT22;4757;59.334;18.034;2023-06-24T05:54:15;17.30;96.00
9437;DHT22;4757;59.334;18.034;2023-06-24T05:56:42;17.40;96.20
9437;DHT22;4757;59.334;18.034;2023-06-24T05:59:10;17.60;96.40
9437;DHT22;4757;59.334;18.034;2023-06-24T06:01:37;17.80;95.80
9437;DHT22;4757;59.334;18.034;2023-06-24T06:04:04;17.80;95.60
9437;DHT22;4757;59.334;18.034;2023-06-24T06:06:31;17.80;95.50
9437;DHT22;4757;59.334;18.034;2023-06-24T06:08:59;17.80;95.80
9437;DHT22;4757;59.334;18.034;2023-06-24T06:11:26;17.70;96.00
9437;DHT22;4757;59.334;18.034;2023-06-24T06:13:53;17.70;95.80
9437;DHT22;4757;59.334;18.034;2023-06-24T06:16:20;18.00;95.90
9437;DHT22;4757;59.334;18.034;2023-06-24T06:18:47;18.00;95.70
9437;DHT22;4757;59.334;18.034;2023-06-24T06:21:15;17.90;95.60
9437;DHT22;4757;59.334;18.034;2023-06-24T06:23:42;17.80;95.90
9437;DHT22;4757;59.334;18.034;2023-06-24T06:26:09;18.00;95.90
9437;DHT22;4757;59.334;18.034;2023-06-24T06:28:36;18.20;95.50
9437;DHT22;4757;59.334;18.034;2023-06-24T06:31:03;18.40;95.30
9437;DHT22;4757;59.334;18.034;2023-06-24T06:33:30;18.60;95.30
9437;DHT22;4757;59.334;18.034;2023-06-24T06:35:57;18.60;95.10
9437;DHT22;4757;59.334;18.034;2023-06-24T06:38:25;18.50;95.20
9437;DHT22;4757;59.334;18.034;2023-06-24T06:40:52;18.70;95.20
9437;DHT22;4757;59.334;18.034;2023-06-24T06:43:19;18.80;95.20
9437;DHT22;4757;59.334;18.034;2023-06-24T06:45:46;18.90;95.00
9437;DHT22;4757;59.334;18.034;2023-06-24T06:48:13;19.10;94.20
9437;DHT22;4757;59.334;18.034;2023-06-24T06:50:40;18.80;93.70
9437;DHT22;4757;59.334;18.034;2023-06-24T06:53:07;18.80;93.70
9437;DHT22;4757;59.334;18.034;2023-06-24T06:55:36;18.90;93.80
9437;DHT22;4757;59.334;18.034;2023-06-24T06:58:06;19.20;93.50
9437;DHT22;4757;59.334;18.034;2023-06-24T07:00:33;19.30;93.50
9437;DHT22;4757;59.334;18.034;2023-06-24T07:03:00;19.80;93.30
9437;DHT22;4757;59.334;18.034;2023-06-24T07:05:27;20.50;92.90
9437;DHT22;4757;59.334;18.034;2023-06-24T07:07:54;19.80;93.20
9437;DHT22;4757;59.334;18.034;2023-06-24T07:10:21;20.30;92.80
9437;DHT22;4757;59.334;18.034;2023-06-24T07:12:48;21.50;92.30
9437;DHT22;4757;59.334;18.034;2023-06-24T07:15:15;21.30;91.70
9437;DHT22;4757;59.334;18.034;2023-06-24T07:17:46;21.70;91.40
9437;DHT22;4757;59.334;18.034;2023-06-24T07:20:13;21.70;91.40
9437;DHT22;4757;59.334;18.034;2023-06-24T07:22:40;21.90;91.60
9437;DHT22;4757;59.334;18.034;2023-06-24T07:25:07;22.20;91.50
9437;DHT22;4757;59.334;18.034;2023-06-24T07:27:34;23.00;91.40
9437;DHT22;4757;59.334;18.034;2023-06-24T07:30:01;23.20;91.10
9437;DHT22;4757;59.334;18.034;2023-06-24T07:32:28;23.20;91.10
9437;DHT22;4757;59.334;18.034;2023-06-24T07:34:55;23.20;91.10
9437;DHT22;4757;59.334;18.034;2023-06-24T07:37:23;23.00;91.30
9437;DHT22;4757;59.334;18.034;2023-06-24T07:39:51;23.00;91.10
9437;DHT22;4757;59.334;18.034;2023-06-24T07:42:18;24.30;90.70
9437;DHT22;4757;59.334;18.034;2023-06-24T07:44:46;24.20;90.40
9437;DHT22;4757;59.334;18.034;2023-06-24T07:47:14;24.50;90.20
9437;DHT22;4757;59.334;18.034;2023-06-24T07:49:41;24.90;90.00
9437;DHT22;4757;59.334;18.034;2023-06-24T07:52:08;24.10;89.00
9437;DHT22;4757;59.334;18.034;2023-06-24T07:54:35;24.30;88.20
9437;DHT22;4757;59.334;18.034;2023-06-24T07:57:02;24.90;87.60
9437;DHT22;4757;59.334;18.034;2023-06-24T07:59:29;24.50;87.70
9437;DHT22;4757;59.334;18.034;2023-06-24T08:01:56;24.60;88.00
9437;DHT22;4757;59.334;18.034;2023-06-24T08:04:24;24.20;88.80
9437;DHT22;4757;59.334;18.034;2023-06-24T08:06:51;23.80;89.40
9437;DHT22;4757;59.334;18.034;2023-06-24T08:09:19;24.50;88.60
9437;DHT22;4757;59.334;18.034;2023-06-24T08:11:46;23.30;88.70
9437;DHT22;4757;59.334;18.034;2023-06-24T08:14:13;22.60;90.30
9437;DHT22;4757;59.334;18.034;2023-06-24T08:16:40;23.20;90.70
9437;DHT22;4757;59.334;18.034;2023-06-24T08:19:07;22.20;91.10
9437;DHT22;4757;59.334;18.034;2023-06-24T08:21:34;23.40;90.90
9437;DHT22;4757;59.334;18.034;2023-06-24T08:24:01;23.70;91.00
9437;DHT22;4757;59.334;18.034;2023-06-24T08:26:29;23.90;90.40
9437;DHT22;4757;59.334;18.034;2023-06-24T08:28:56;24.30;90.10
9437;DHT22;4757;59.334;18.034;2023-06-24T08:31:26;24.10;91.00
9437;DHT22;4757;59.334;18.034;2023-06-24T08:33:54;24.40;90.30
9437;DHT22;4757;59.334;18.034;2023-06-24T08:36:27;24.40;90.10
9437;DHT22;4757;59.334;18.034;2023-06-24T08:38:54;24.70;90.50
9437;DHT22;4757;59.334;18.034;2023-06-24T08:41:22;25.30;89.80
9437;DHT22;4757;59.334;18.034;2023-06-24T08:43:53;25.30;89.20
9437;DHT22;4757;59.334;18.034;2023-06-24T08:46:21;25.90;88.50
9437;DHT22;4757;59.334;18.034;2023-06-24T08:48:49;25.30;89.20
9437;DHT22;4757;59.334;18.034;2023-06-24T08:51:20;25.40;88.80
9437;DHT22;4757;59.334;18.034;2023-06-24T08:53:48;25.10;90.30
9437;DHT22;4757;59.334;18.034;2023-06-24T08:56:16;25.70;89.40
9437;DHT22;4757;59.334;18.034;2023-06-24T08:58:44;25.20;88.90
9437;DHT22;4757;59.334;18.034;2023-06-24T09:01:11;25.50;88.10
9437;DHT22;4757;59.334;18.034;2023-06-24T09:03:39;25.30;86.10
9437;DHT22;4757;59.334;18.034;2023-06-24T09:06:06;24.70;86.80
9437;DHT22;4757;59.334;18.034;2023-06-24T09:08:33;25.90;86.20
9437;DHT22;4757;59.334;18.034;2023-06-24T09:11:02;25.70;85.40
9437;DHT22;4757;59.334;18.034;2023-06-24T09:13:38;26.30;85.00
9437;DHT22;4757;59.334;18.034;2023-06-24T09:16:15;24.80;86.50
9437;DHT22;4757;59.334;18.034;2023-06-24T09:18:48;25.40;87.20
9437;DHT22;4757;59.334;18.034;2023-06-24T09:21:26;26.10;85.80
9437;DHT22;4757;59.334;18.034;2023-06-24T09:23:55;25.90;85.00
9437;DHT22;4757;59.334;18.034;2023-06-24T09:26:26;25.60;86.10
9437;DHT22;4757;59.334;18.034;2023-06-24T09:28:54;25.30;87.10
9437;DHT22;4757;59.334;18.034;2023-06-24T09:31:21;25.10;87.30
9437;DHT22;4757;59.334;18.034;2023-06-24T09:33:50;26.20;85.70
9437;DHT22;4757;59.334;18.034;2023-06-24T09:36:17;26.40;85.70
9437;DHT22;4757;59.334;18.034;2023-06-24T09:38:45;26.00;85.60
9437;DHT22;4757;59.334;18.034;2023-06-24T09:41:14;26.60;86.00
9437;DHT22;4757;59.334;18.034;2023-06-24T09:43:43;27.10;84.80
9437;DHT22;4757;59.334;18.034;2023-06-24T09:46:14;26.80;84.70
9437;DHT22;4757;59.334;18.034;2023-06-24T09:48:43;25.90;86.00
9437;DHT22;4757;59.334;18.034;2023-06-24T09:51:11;25.60;86.80
9437;DHT22;4757;59.334;18.034;2023-06-24T09:53:39;25.90;86.50
9437;DHT22;4757;59.334;18.034;2023-06-24T09:56:08;26.30;86.30
9437;DHT22;4757;59.334;18.034;2023-06-24T09:58:37;25.90;87.60
9437;DHT22;4757;59.334;18.034;2023-06-24T10:01:06;26.40;86.70
9437;DHT22;4757;59.334;18.034;2023-06-24T10:03:35;26.30;85.80
9437;DHT22;4757;59.334;18.034;2023-06-24T10:06:04;26.50;86.00
9437;DHT22;4757;59.334;18.034;2023-06-24T10:08:31;26.60;85.40
9437;DHT22;4757;59.334;18.034;2023-06-24T10:10:59;26.20;86.10
9437;DHT22;4757;59.334;18.034;2023-06-24T10:13:28;26.40;85.90
9437;DHT22;4757;59.334;18.034;2023-06-24T10:15:56;27.20;85.70
9437;DHT22;4757;59.334;18.034;2023-06-24T10:18:37;27.20;85.70
9437;DHT22;4757;59.334;18.034;2023-06-24T10:21:06;28.00;84.20
9437;DHT22;4757;59.334;18.034;2023-06-24T10:26:28;26.80;84.50
9437;DHT22;4757;59.334;18.034;2023-06-24T10:37:00;26.50;87.30
9437;DHT22;4757;59.334;18.034;2023-06-24T10:39:48;26.50;86.90
9437;DHT22;4757;59.334;18.034;2023-06-24T10:42:40;26.10;88.70
9437;DHT22;4757;59.334;18.034;2023-06-24T10:47:42;26.60;88.40
9437;DHT22;4757;59.334;18.034;2023-06-24T10:50:15;26.60;88.60
9437;DHT22;4757;59.334;18.034;2023-06-24T10:52:44;25.50;90.40
9437;DHT22;4757;59.334;18.034;2023-06-24T10:55:18;25.50;90.50
9437;DHT22;4757;59.334;18.034;2023-06-24T10:57:45;26.20;90.10
9437;DHT22;4757;59.334;18.034;2023-06-24T11:00:13;26.70;90.10
9437;DHT22;4757;59.334;18.034;2023-06-24T11:02:41;26.90;90.10
9437;DHT22;4757;59.334;18.034;2023-06-24T11:05:09;27.00;90.40
9437;DHT22;4757;59.334;18.034;2023-06-24T11:07:39;27.40;89.70
9437;DHT22;4757;59.334;18.034;2023-06-24T11:10:14;27.00;90.10
9437;DHT22;4757;59.334;18.034;2023-06-24T11:12:42;25.70;90.60
9437;DHT22;4757;59.334;18.034;2023-06-24T11:15:12;26.60;90.60
9437;DHT22;4757;59.334;18.034;2023-06-24T11:17:40;25.50;91.10
9437;DHT22;4757;59.334;18.034;2023-06-24T11:20:12;25.70;91.90
9437;DHT22;4757;59.334;18.034;2023-06-24T11:22:41;26.20;91.20
9437;DHT22;4757;59.334;18.034;2023-06-24T11:25:43;26.30;91.20
9437;DHT22;4757;59.334;18.034;2023-06-24T11:28:20;26.50;90.80
9437;DHT22;4757;59.334;18.034;2023-06-24T11:30:49;25.60;90.60
9437;DHT22;4757;59.334;18.034;2023-06-24T11:33:29;26.80;90.50
9437;DHT22;4757;59.334;18.034;2023-06-24T11:35:56;26.00;91.00
9437;DHT22;4757;59.334;18.034;2023-06-24T11:38:23;26.20;90.90
9437;DHT22;4757;59.334;18.034;2023-06-24T11:40:51;26.30;91.00
9437;DHT22;4757;59.334;18.034;2023-06-24T11:43:18;26.60;90.70
9437;DHT22;4757;59.334;18.034;2023-06-24T11:45:48;26.60;91.30
9437;DHT22;4757;59.334;18.034;2023-06-24T11:48:15;26.20;91.30
9437;DHT22;4757;59.334;18.034;2023-06-24T11:50:42;26.20;91.20
9437;DHT22;4757;59.334;18.034;2023-06-24T11:53:09;27.20;90.60
9437;DHT22;4757;59.334;18.034;2023-06-24T11:55:37;26.50;90.90
9437;DHT22;4757;59.334;18.034;2023-06-24T11:58:04;26.80;91.10
9437;DHT22;4757;59.334;18.034;2023-06-24T12:00:37;26.30;91.10
9437;DHT22;4757;59.334;18.034;2023-06-24T12:03:06;26.80;91.40
9437;DHT22;4757;59.334;18.034;2023-06-24T12:05:38;27.20;91.20
9437;DHT22;4757;59.334;18.034;2023-06-24T12:08:12;27.20;90.90
9437;DHT22;4757;59.334;18.034;2023-06-24T12:10:44;26.50;91.80
9437;DHT22;4757;59.334;18.034;2023-06-24T12:13:11;26.60;92.20
9437;DHT22;4757;59.334;18.034;2023-06-24T12:15:39;25.70;92.30
9437;DHT22;4757;59.334;18.034;2023-06-24T12:18:06;26.20;92.10
9437;DHT22;4757;59.334;18.034;2023-06-24T12:20:33;26.40;92.10
9437;DHT22;4757;59.334;18.034;2023-06-24T12:23:04;26.70;92.10
9437;DHT22;4757;59.334;18.034;2023-06-24T12:25:32;26.50;92.30
9437;DHT22;4757;59.334;18.034;2023-06-24T12:27:59;27.30;91.50
9437;DHT22;4757;59.334;18.034;2023-06-24T12:30:27;27.40;91.20
9437;DHT22;4757;59.334;18.034;2023-06-24T12:32:54;27.90;91.00
9437;DHT22;4757;59.334;18.034;2023-06-24T12:35:22;27.00;91.50
9437;DHT22;4757;59.334;18.034;2023-06-24T12:37:52;27.40;91.30
9437;DHT22;4757;59.334;18.034;2023-06-24T12:40:19;26.90;91.40
9437;DHT22;4757;59.334;18.034;2023-06-24T12:42:47;26.50;91.80
9437;DHT22;4757;59.334;18.034;2023-06-24T12:45:14;26.30;92.30
9437;DHT22;4757;59.334;18.034;2023-06-24T12:47:41;27.10;91.80
9437;DHT22;4757;59.334;18.034;2023-06-24T12:50:08;27.50;91.40
9437;DHT22;4757;59.334;18.034;2023-06-24T12:52:36;26.60;91.70
9437;DHT22;4757;59.334;18.034;2023-06-24T12:55:05;26.70;91.90
9437;DHT22;4757;59.334;18.034;2023-06-24T12:57:34;26.20;91.90
9437;DHT22;4757;59.334;18.034;2023-06-24T13:00:01;27.10;91.20
9437;DHT22;4757;59.334;18.034;2023-06-24T13:02:28;27.20;91.30
9437;DHT22;4757;59.334;18.034;2023-06-24T13:04:55;27.20;91.10
9437;DHT22;4757;59.334;18.034;2023-06-24T13:07:23;27.40;90.90
9437;DHT22;4757;59.334;18.034;2023-06-24T13:09:50;27.20;90.70
9437;DHT22;4757;59.334;18.034;2023-06-24T13:12:19;27.50;90.60
9437;DHT22;4757;59.334;18.034;2023-06-24T13:14:46;27.40;90.70
9437;DHT22;4757;59.334;18.034;2023-06-24T13:17:13;27.20;90.60
9437;DHT22;4757;59.334;18.034;2023-06-24T13:19:40;27.60;90.60
9437;DHT22;4757;59.334;18.034;2023-06-24T13:22:07;27.60;89.80
9437;DHT22;4757;59.334;18.034;2023-06-24T13:24:34;27.00;88.50
9437;DHT22;4757;59.334;18.034;2023-06-24T13:27:01;27.10;89.40
9437;DHT22;4757;59.334;18.034;2023-06-24T13:29:28;27.50;89.90
9437;DHT22;4757;59.334;18.034;2023-06-24T13:31:55;28.10;89.80
9437;DHT22;4757;59.334;18.034;2023-06-24T13:34:23;28.20;88.90
9437;DHT22;4757;59.334;18.034;2023-06-24T13:36:50;27.80;88.90
9437;DHT22;4757;59.334;18.034;2023-06-24T13:39:17;28.00;89.00
9437;DHT22;4757;59.334;18.034;2023-06-24T13:41:45;28.10;87.40
9437;DHT22;4757;59.334;18.034;2023-06-24T13:44:12;28.10;87.70
9437;DHT22;4757;59.334;18.034;2023-06-24T13:46:39;28.40;87.20
9437;DHT22;4757;59.334;18.034;2023-06-24T13:49:06;28.20;86.50
9437;DHT22;4757;59.334;18.034;2023-06-24T13:51:33;27.90;86.80
9437;DHT22;4757;59.334;18.034;2023-06-24T13:54:01;28.30;86.50
9437;DHT22;4757;59.334;18.034;2023-06-24T13:56:28;27.90;86.10
9437;DHT22;4757;59.334;18.034;2023-06-24T13:58:56;27.10;86.70
9437;DHT22;4757;59.334;18.034;2023-06-24T14:01:23;26.30;88.40
9437;DHT22;4757;59.334;18.034;2023-06-24T14:03:51;26.10;88.20
9437;DHT22;4757;59.334;18.034;2023-06-24T14:06:21;26.20;88.70
9437;DHT22;4757;59.334;18.034;2023-06-24T14:08:49;26.00;89.20
9437;DHT22;4757;59.334;18.034;2023-06-24T14:11:17;26.30;88.70
9437;DHT22;4757;59.334;18.034;2023-06-24T14:13:44;26.70;87.80
9437;DHT22;4757;59.334;18.034;2023-06-24T14:16:12;27.00;87.90
9437;DHT22;4757;59.334;18.034;2023-06-24T14:18:39;26.50;88.20
9437;DHT22;4757;59.334;18.034;2023-06-24T14:21:07;26.30;89.40
9437;DHT22;4757;59.334;18.034;2023-06-24T14:23:34;26.50;88.30
9437;DHT22;4757;59.334;18.034;2023-06-24T14:26:02;27.10;87.70
9437;DHT22;4757;59.334;18.034;2023-06-24T14:28:29;27.40;86.80
9437;DHT22;4757;59.334;18.034;2023-06-24T14:30:56;27.30;86.90
9437;DHT22;4757;59.334;18.034;2023-06-24T14:33:23;27.80;86.20
9437;DHT22;4757;59.334;18.034;2023-06-24T14:35:51;27.30;86.10
9437;DHT22;4757;59.334;18.034;2023-06-24T14:38:18;26.80;86.20
9437;DHT22;4757;59.334;18.034;2023-06-24T14:40:45;27.00;86.40
9437;DHT22;4757;59.334;18.034;2023-06-24T14:43:12;27.10;86.50
9437;DHT22;4757;59.334;18.034;2023-06-24T14:45:39;27.20;86.10
9437;DHT22;4757;59.334;18.034;2023-06-24T14:48:06;26.70;86.40
9437;DHT22;4757;59.334;18.034;2023-06-24T14:50:33;27.30;85.70
9437;DHT22;4757;59.334;18.034;2023-06-24T14:53:02;27.70;85.40
9437;DHT22;4757;59.334;18.034;2023-06-24T14:55:30;27.90;84.60
9437;DHT22;4757;59.334;18.034;2023-06-24T14:57:57;27.90;84.80
9437;DHT22;4757;59.334;18.034;2023-06-24T15:00:24;28.00;84.30
9437;DHT22;4757;59.334;18.034;2023-06-24T15:02:51;27.90;84.20
9437;DHT22;4757;59.334;18.034;2023-06-24T15:05:19;28.00;84.20
9437;DHT22;4757;59.334;18.034;2023-06-24T15:07:46;27.00;85.80
9437;DHT22;4757;59.334;18.034;2023-06-24T15:10:13;27.20;85.00
9437;DHT22;4757;59.334;18.034;2023-06-24T15:12:39;27.20;85.10
9437;DHT22;4757;59.334;18.034;2023-06-24T15:15:07;27.20;85.80
9437;DHT22;4757;59.334;18.034;2023-06-24T15:17:34;27.20;86.10
9437;DHT22;4757;59.334;18.034;2023-06-24T15:20:03;27.30;86.50
9437;DHT22;4757;59.334;18.034;2023-06-24T15:22:30;27.30;86.90
9437;DHT22;4757;59.334;18.034;2023-06-24T15:24:57;27.20;86.70
9437;DHT22;4757;59.334;18.034;2023-06-24T15:27:24;27.20;86.30
9437;DHT22;4757;59.334;18.034;2023-06-24T15:29:51;27.00;86.50
9437;DHT22;4757;59.334;18.034;2023-06-24T15:32:18;27.10;87.00
9437;DHT22;4757;59.334;18.034;2023-06-24T15:34:46;27.00;86.60
9437;DHT22;4757;59.334;18.034;2023-06-24T15:37:13;27.00;87.00
9437;DHT22;4757;59.334;18.034;2023-06-24T15:39:41;27.40;86.70
9437;DHT22;4757;59.334;18.034;2023-06-24T15:42:08;26.70;87.10
9437;DHT22;4757;59.334;18.034;2023-06-24T15:44:37;26.90;86.80
9437;DHT22;4757;59.334;18.034;2023-06-24T15:47:07;26.80;86.70
9437;DHT22;4757;59.334;18.034;2023-06-24T15:49:34;26.90;86.90
9437;DHT22;4757;59.334;18.034;2023-06-24T15:52:01;27.00;87.00
9437;DHT22;4757;59.334;18.034;2023-06-24T15:54:28;26.90;86.70
9437;DHT22;4757;59.334;18.034;2023-06-24T15:56:55;26.80;86.90
9437;DHT22;4757;59.334;18.034;2023-06-24T15:59:22;26.50;87.00
9437;DHT22;4757;59.334;18.034;2023-06-24T16:01:49;26.80;87.10
9437;DHT22;4757;59.334;18.034;2023-06-24T16:04:16;26.80;87.30
9437;DHT22;4757;59.334;18.034;2023-06-24T16:06:43;27.00;88.40
9437;DHT22;4757;59.334;18.034;2023-06-24T16:09:11;26.70;87.50
9437;DHT22;4757;59.334;18.034;2023-06-24T16:11:38;26.80;87.50
9437;DHT22;4757;59.334;18.034;2023-06-24T16:14:05;26.70;88.10
9437;DHT22;4757;59.334;18.034;2023-06-24T16:16:32;26.80;87.80